sensor_id;sensor_type;location;lat;lon;timestamp;P1;durP1;ratioP1;P2;durP2;ratioP2
7899;SDS011;3995;50.856;4.404;2023-05-27T00:02:14;18.00;;;4.90;;
7899;SDS011;3995;50.856;4.404;2023-05-27T00:04:42;11.07;;;4.30;;
7899;SDS011;3995;50.856;4.404;2023-05-27T00:07:09;10.00;;;4.37;;
7899;SDS011;3995;50.856;4.404;2023-05-27T00:09:37;11.70;;;5.17;;
7899;SDS011;3995;50.856;4.404;2023-05-27T00:12:04;10.83;;;4.77;;
7899;SDS011;3995;50.856;4.404;2023-05-27T00:14:32;13.23;;;5.63;;
7899;SDS011;3995;50.856;4.404;2023-05-27T00:17:00;14.07;;;4.67;;
7899;SDS011;3995;50.856;4.404;2023-05-27T00:19:29;15.07;;;4.43;;
7899;SDS011;3995;50.856;4.404;2023-05-27T00:21:57;12.30;;;5.43;;
7899;SDS011;3995;50.856;4.404;2023-05-27T00:24:25;12.73;;;4.53;;
7899;SDS011;3995;50.856;4.404;2023-05-27T00:26:52;12.53;;;4.90;;
7899;SDS011;3995;50.856;4.404;2023-05-27T00:29:19;11.63;;;5.00;;
7899;SDS011;3995;50.856;4.404;2023-05-27T00:31:46;11.90;;;3.93;;
7899;SDS011;3995;50.856;4.404;2023-05-27T00:34:13;10.90;;;4.70;;
7899;SDS011;3995;50.856;4.404;2023-05-27T00:36:42;10.13;;;4.40;;
7899;SDS011;3995;50.856;4.404;2023-05-27T00:39:10;16.80;;;5.17;;
7899;SDS011;3995;50.856;4.404;2023-05-27T00:41:38;10.10;;;4.47;;
7899;SDS011;3995;50.856;4.404;2023-05-27T00:44:14;9.97;;;4.20;;
7899;SDS011;3995;50.856;4.404;2023-05-27T00:46:41;19.67;;;5.17;;
7899;SDS011;3995;50.856;4.404;2023-05-27T00:49:10;10.87;;;4.73;;
7899;SDS011;3995;50.856;4.404;2023-05-27T00:51:38;14.50;;;3.50;;
7899;SDS011;3995;50.856;4.404;2023-05-27T00:54:08;11.70;;;4.60;;
7899;SDS011;3995;50.856;4.404;2023-05-27T00:56:38;7.10;;;4.47;;
7899;SDS011;3995;50.856;4.404;2023-05-27T00:59:06;10.47;;;4.70;;
7899;SDS011;3995;50.856;4.404;2023-05-27T01:01:33;16.73;;;5.20;;
7899;SDS011;3995;50.856;4.404;2023-05-27T01:04:01;12.73;;;4.60;;
7899;SDS011;3995;50.856;4.404;2023-05-27T01:06:32;10.40;;;4.47;;
7899;SDS011;3995;50.856;4.404;2023-05-27T01:09:15;11.67;;;4.20;;
7899;SDS011;3995;50.856;4.404;2023-05-27T01:11:49;27.13;;;5.73;;
7899;SDS011;3995;50.856;4.404;2023-05-27T01:14:22;10.10;;;4.70;;
7899;SDS011;3995;50.856;4.404;2023-05-27T01:16:51;15.47;;;4.93;;
7899;SDS011;3995;50.856;4.404;2023-05-27T01:19:27;9.27;;;4.03;;
7899;SDS011;3995;50.856;4.404;2023-05-27T01:21:57;11.87;;;4.73;;
7899;SDS011;3995;50.856;4.404;2023-05-27T01:24:28;12.03;;;4.20;;
7899;SDS011;3995;50.856;4.404;2023-05-27T01:26:56;12.30;;;4.60;;
7899;SDS011;3995;50.856;4.404;2023-05-27T01:29:26;20.27;;;5.37;;
7899;SDS011;3995;50.856;4.404;2023-05-27T01:31:55;11.63;;;4.40;;
7899;SDS011;3995;50.856;4.404;2023-05-27T01:34:26;14.13;;;5.20;;
7899;SDS011;3995;50.856;4.404;2023-05-27T01:37:02;15.67;;;4.50;;
7899;SDS011;3995;50.856;4.404;2023-05-27T01:39:35;13.20;;;5.03;;
7899;SDS011;3995;50.856;4.404;2023-05-27T01:42:04;17.30;;;4.63;;
7899;SDS011;3995;50.856;4.404;2023-05-27T01:44:32;14.90;;;5.60;;
7899;SDS011;3995;50.856;4.404;2023-05-27T01:47:00;7.87;;;4.70;;
7899;SDS011;3995;50.856;4.404;2023-05-27T01:49:29;13.10;;;4.87;;
7899;SDS011;3995;50.856;4.404;2023-05-27T01:51:57;11.70;;;4.60;;
7899;SDS011;3995;50.856;4.404;2023-05-27T01:54:25;12.87;;;4.30;;
7899;SDS011;3995;50.856;4.404;2023-05-27T01:56:54;14.07;;;3.93;;
7899;SDS011;3995;50.856;4.404;2023-05-27T01:59:21;16.87;;;5.37;;
7899;SDS011;3995;50.856;4.404;2023-05-27T02:01:48;19.70;;;4.70;;
7899;SDS011;3995;50.856;4.404;2023-05-27T02:04:17;12.07;;;4.87;;
7899;SDS011;3995;50.856;4.404;2023-05-27T02:06:44;12.73;;;4.70;;
7899;SDS011;3995;50.856;4.404;2023-05-27T02:09:12;15.60;;;4.70;;
7899;SDS011;3995;50.856;4.404;2023-05-27T02:11:39;12.03;;;4.60;;
7899;SDS011;3995;50.856;4.404;2023-05-27T02:14:08;14.10;;;4.37;;
7899;SDS011;3995;50.856;4.404;2023-05-27T02:16:36;11.67;;;5.13;;
7899;SDS011;3995;50.856;4.404;2023-05-27T02:19:04;10.07;;;4.43;;
7899;SDS011;3995;50.856;4.404;2023-05-27T02:21:32;11.70;;;4.23;;
7899;SDS011;3995;50.856;4.404;2023-05-27T02:24:00;16.20;;;4.87;;
7899;SDS011;3995;50.856;4.404;2023-05-27T02:26:28;11.40;;;4.33;;
7899;SDS011;3995;50.856;4.404;2023-05-27T02:28:55;16.43;;;4.77;;
7899;SDS011;3995;50.856;4.404;2023-05-27T02:31:25;12.43;;;4.77;;
7899;SDS011;3995;50.856;4.404;2023-05-27T02:33:52;10.77;;;4.30;;
7899;SDS011;3995;50.856;4.404;2023-05-27T02:36:19;14.83;;;4.93;;
7899;SDS011;3995;50.856;4.404;2023-05-27T02:38:49;8.03;;;3.80;;
7899;SDS011;3995;50.856;4.404;2023-05-27T02:41:16;13.87;;;4.50;;
7899;SDS011;3995;50.856;4.404;2023-05-27T02:43:43;17.70;;;5.70;;
7899;SDS011;3995;50.856;4.404;2023-05-27T02:46:11;13.93;;;4.97;;
7899;SDS011;3995;50.856;4.404;2023-05-27T02:48:41;12.70;;;4.50;;
7899;SDS011;3995;50.856;4.404;2023-05-27T02:51:08;11.67;;;4.97;;
7899;SDS011;3995;50.856;4.404;2023-05-27T02:53:36;13.47;;;5.07;;
7899;SDS011;3995;50.856;4.404;2023-05-27T02:56:04;8.60;;;4.13;;
7899;SDS011;3995;50.856;4.404;2023-05-27T02:58:32;17.43;;;5.03;;
7899;SDS011;3995;50.856;4.404;2023-05-27T03:00:59;10.73;;;4.43;;
7899;SDS011;3995;50.856;4.404;2023-05-27T03:03:27;15.53;;;4.97;;
7899;SDS011;3995;50.856;4.404;2023-05-27T03:05:56;15.87;;;4.97;;
7899;SDS011;3995;50.856;4.404;2023-05-27T03:08:24;21.90;;;5.23;;
7899;SDS011;3995;50.856;4.404;2023-05-27T03:10:51;14.40;;;4.50;;
7899;SDS011;3995;50.856;4.404;2023-05-27T03:13:19;20.67;;;4.70;;
7899;SDS011;3995;50.856;4.404;2023-05-27T03:15:47;11.53;;;5.10;;
7899;SDS011;3995;50.856;4.404;2023-05-27T03:18:14;13.97;;;4.00;;
7899;SDS011;3995;50.856;4.404;2023-05-27T03:20:41;11.40;;;5.00;;
7899;SDS011;3995;50.856;4.404;2023-05-27T03:23:10;11.30;;;5.13;;
7899;SDS011;3995;50.856;4.404;2023-05-27T03:25:38;12.97;;;4.60;;
7899;SDS011;3995;50.856;4.404;2023-05-27T03:28:05;12.60;;;4.97;;
7899;SDS011;3995;50.856;4.404;2023-05-27T03:30:33;10.97;;;4.07;;
7899;SDS011;3995;50.856;4.404;2023-05-27T03:33:01;10.80;;;4.80;;
7899;SDS011;3995;50.856;4.404;2023-05-27T03:35:29;16.50;;;5.30;;
7899;SDS011;3995;50.856;4.404;2023-05-27T03:37:56;15.20;;;5.03;;
7899;SDS011;3995;50.856;4.404;2023-05-27T03:40:25;11.87;;;4.60;;
7899;SDS011;3995;50.856;4.404;2023-05-27T03:42:52;15.20;;;5.60;;
7899;SDS011;3995;50.856;4.404;2023-05-27T03:45:20;13.00;;;4.73;;
7899;SDS011;3995;50.856;4.404;2023-05-27T03:47:47;13.20;;;5.00;;
7899;SDS011;3995;50.856;4.404;2023-05-27T03:50:15;14.70;;;5.33;;
7899;SDS011;3995;50.856;4.404;2023-05-27T03:52:43;13.20;;;4.73;;
7899;SDS011;3995;50.856;4.404;2023-05-27T03:55:10;13.37;;;4.87;;
7899;SDS011;3995;50.856;4.404;2023-05-27T03:57:39;13.00;;;4.60;;
7899;SDS011;3995;50.856;4.404;2023-05-27T04:00:06;14.60;;;5.50;;
7899;SDS011;3995;50.856;4.404;2023-05-27T04:02:36;12.17;;;4.40;;
7899;SDS011;3995;50.856;4.404;2023-05-27T04:05:04;13.23;;;5.13;;
7899;SDS011;3995;50.856;4.404;2023-05-27T04:07:31;13.20;;;5.60;;
7899;SDS011;3995;50.856;4.404;2023-05-27T04:09:59;13.13;;;5.00;;
7899;SDS011;3995;50.856;4.404;2023-05-27T04:12:26;9.60;;;4.53;;
7899;SDS011;3995;50.856;4.404;2023-05-27T04:14:55;10.90;;;4.50;;
7899;SDS011;3995;50.856;4.404;2023-05-27T04:17:22;11.13;;;4.83;;
7899;SDS011;3995;50.856;4.404;2023-05-27T04:19:51;11.13;;;4.60;;
7899;SDS011;3995;50.856;4.404;2023-05-27T04:22:20;11.73;;;5.40;;
7899;SDS011;3995;50.856;4.404;2023-05-27T04:24:47;13.60;;;5.10;;
7899;SDS011;3995;50.856;4.404;2023-05-27T04:27:14;12.43;;;5.37;;
7899;SDS011;3995;50.856;4.404;2023-05-27T04:29:44;12.40;;;5.37;;
7899;SDS011;3995;50.856;4.404;2023-05-27T04:32:14;13.83;;;5.30;;
7899;SDS011;3995;50.856;4.404;2023-05-27T04:34:42;13.00;;;5.07;;
7899;SDS011;3995;50.856;4.404;2023-05-27T04:37:10;10.03;;;3.97;;
7899;SDS011;3995;50.856;4.404;2023-05-27T04:39:37;17.00;;;5.30;;
7899;SDS011;3995;50.856;4.404;2023-05-27T04:42:11;12.23;;;5.77;;
7899;SDS011;3995;50.856;4.404;2023-05-27T04:44:40;11.40;;;5.20;;
7899;SDS011;3995;50.856;4.404;2023-05-27T04:47:07;16.67;;;5.53;;
7899;SDS011;3995;50.856;4.404;2023-05-27T04:49:40;14.40;;;4.70;;
7899;SDS011;3995;50.856;4.404;2023-05-27T04:52:09;17.50;;;5.97;;
7899;SDS011;3995;50.856;4.404;2023-05-27T04:54:36;14.83;;;4.63;;
7899;SDS011;3995;50.856;4.404;2023-05-27T04:57:03;12.87;;;6.10;;
7899;SDS011;3995;50.856;4.404;2023-05-27T04:59:31;23.07;;;6.20;;
7899;SDS011;3995;50.856;4.404;2023-05-27T05:02:11;15.23;;;5.40;;
7899;SDS011;3995;50.856;4.404;2023-05-27T05:04:48;14.60;;;5.87;;
7899;SDS011;3995;50.856;4.404;2023-05-27T05:07:16;16.00;;;6.70;;
7899;SDS011;3995;50.856;4.404;2023-05-27T05:09:44;14.70;;;6.47;;
7899;SDS011;3995;50.856;4.404;2023-05-27T05:12:12;12.90;;;5.53;;
7899;SDS011;3995;50.856;4.404;2023-05-27T05:14:39;16.33;;;5.33;;
7899;SDS011;3995;50.856;4.404;2023-05-27T05:17:06;13.77;;;6.13;;
7899;SDS011;3995;50.856;4.404;2023-05-27T05:19:34;11.37;;;5.10;;
7899;SDS011;3995;50.856;4.404;2023-05-27T05:22:03;17.17;;;5.87;;
7899;SDS011;3995;50.856;4.404;2023-05-27T05:24:31;12.40;;;5.70;;
7899;SDS011;3995;50.856;4.404;2023-05-27T05:26:58;12.50;;;4.80;;
7899;SDS011;3995;50.856;4.404;2023-05-27T05:29:26;13.67;;;5.53;;
7899;SDS011;3995;50.856;4.404;2023-05-27T05:31:53;18.40;;;5.97;;
7899;SDS011;3995;50.856;4.404;2023-05-27T05:34:21;16.63;;;5.80;;
7899;SDS011;3995;50.856;4.404;2023-05-27T05:36:48;20.70;;;6.27;;
7899;SDS011;3995;50.856;4.404;2023-05-27T05:39:17;8.67;;;4.70;;
7899;SDS011;3995;50.856;4.404;2023-05-27T05:41:45;18.20;;;5.63;;
7899;SDS011;3995;50.856;4.404;2023-05-27T05:44:12;17.07;;;6.20;;
7899;SDS011;3995;50.856;4.404;2023-05-27T05:46:40;18.20;;;6.10;;
7899;SDS011;3995;50.856;4.404;2023-05-27T05:49:08;15.60;;;6.10;;
7899;SDS011;3995;50.856;4.404;2023-05-27T05:51:35;14.50;;;5.60;;
7899;SDS011;3995;50.856;4.404;2023-05-27T05:54:02;18.37;;;6.20;;
7899;SDS011;3995;50.856;4.404;2023-05-27T05:56:32;15.60;;;6.23;;
7899;SDS011;3995;50.856;4.404;2023-05-27T05:58:59;13.17;;;5.70;;
7899;SDS011;3995;50.856;4.404;2023-05-27T06:01:27;12.57;;;5.50;;
7899;SDS011;3995;50.856;4.404;2023-05-27T06:03:55;12.50;;;6.27;;
7899;SDS011;3995;50.856;4.404;2023-05-27T06:06:24;16.63;;;5.93;;
7899;SDS011;3995;50.856;4.404;2023-05-27T06:08:51;11.63;;;5.40;;
7899;SDS011;3995;50.856;4.404;2023-05-27T06:11:19;13.17;;;5.90;;
7899;SDS011;3995;50.856;4.404;2023-05-27T06:13:48;12.40;;;5.47;;
7899;SDS011;3995;50.856;4.404;2023-05-27T06:16:15;20.50;;;6.17;;
7899;SDS011;3995;50.856;4.404;2023-05-27T06:18:43;17.73;;;7.17;;
7899;SDS011;3995;50.856;4.404;2023-05-27T06:21:11;18.60;;;5.60;;
7899;SDS011;3995;50.856;4.404;2023-05-27T06:23:38;21.77;;;6.43;;
7899;SDS011;3995;50.856;4.404;2023-05-27T06:26:05;16.97;;;8.10;;
7899;SDS011;3995;50.856;4.404;2023-05-27T06:28:33;15.27;;;5.37;;
7899;SDS011;3995;50.856;4.404;2023-05-27T06:31:02;18.90;;;7.00;;
7899;SDS011;3995;50.856;4.404;2023-05-27T06:33:29;22.83;;;6.67;;
7899;SDS011;3995;50.856;4.404;2023-05-27T06:35:57;18.07;;;7.13;;
7899;SDS011;3995;50.856;4.404;2023-05-27T06:38:24;13.53;;;5.87;;
7899;SDS011;3995;50.856;4.404;2023-05-27T06:40:51;17.37;;;5.63;;
7899;SDS011;3995;50.856;4.404;2023-05-27T06:43:19;15.07;;;6.17;;
7899;SDS011;3995;50.856;4.404;2023-05-27T06:45:46;12.33;;;5.90;;
7899;SDS011;3995;50.856;4.404;2023-05-27T06:48:15;18.13;;;6.50;;
7899;SDS011;3995;50.856;4.404;2023-05-27T06:50:43;16.33;;;6.40;;
7899;SDS011;3995;50.856;4.404;2023-05-27T06:53:10;16.37;;;7.27;;
7899;SDS011;3995;50.856;4.404;2023-05-27T06:55:38;19.87;;;6.30;;
7899;SDS011;3995;50.856;4.404;2023-05-27T06:58:05;14.83;;;6.47;;
7899;SDS011;3995;50.856;4.404;2023-05-27T07:00:33;14.80;;;6.10;;
7899;SDS011;3995;50.856;4.404;2023-05-27T07:03:00;18.63;;;6.87;;
7899;SDS011;3995;50.856;4.404;2023-05-27T07:05:30;14.30;;;5.77;;
7899;SDS011;3995;50.856;4.404;2023-05-27T07:07:57;11.50;;;6.13;;
7899;SDS011;3995;50.856;4.404;2023-05-27T07:10:24;14.97;;;6.10;;
7899;SDS011;3995;50.856;4.404;2023-05-27T07:12:52;16.23;;;6.30;;
7899;SDS011;3995;50.856;4.404;2023-05-27T07:15:19;18.60;;;7.23;;
7899;SDS011;3995;50.856;4.404;2023-05-27T07:17:46;14.53;;;6.50;;
7899;SDS011;3995;50.856;4.404;2023-05-27T07:20:14;26.00;;;7.17;;
7899;SDS011;3995;50.856;4.404;2023-05-27T07:22:44;15.03;;;6.53;;
7899;SDS011;3995;50.856;4.404;2023-05-27T07:25:11;26.97;;;7.03;;
7899;SDS011;3995;50.856;4.404;2023-05-27T07:27:39;16.70;;;6.57;;
7899;SDS011;3995;50.856;4.404;2023-05-27T07:30:07;13.77;;;5.97;;
7899;SDS011;3995;50.856;4.404;2023-05-27T07:32:35;15.77;;;6.40;;
7899;SDS011;3995;50.856;4.404;2023-05-27T07:35:04;17.03;;;5.97;;
7899;SDS011;3995;50.856;4.404;2023-05-27T07:37:32;17.90;;;6.70;;
7899;SDS011;3995;50.856;4.404;2023-05-27T07:40:01;19.93;;;6.60;;
7899;SDS011;3995;50.856;4.404;2023-05-27T07:42:29;13.30;;;5.37;;
7899;SDS011;3995;50.856;4.404;2023-05-27T07:44:56;16.93;;;6.40;;
7899;SDS011;3995;50.856;4.404;2023-05-27T07:47:24;11.33;;;5.70;;
7899;SDS011;3995;50.856;4.404;2023-05-27T07:49:51;22.60;;;6.47;;
7899;SDS011;3995;50.856;4.404;2023-05-27T07:52:20;17.03;;;6.93;;
7899;SDS011;3995;50.856;4.404;2023-05-27T07:54:48;16.23;;;6.80;;
7899;SDS011;3995;50.856;4.404;2023-05-27T07:57:18;19.20;;;6.47;;
7899;SDS011;3995;50.856;4.404;2023-05-27T07:59:45;23.23;;;6.47;;
7899;SDS011;3995;50.856;4.404;2023-05-27T08:02:14;14.00;;;5.67;;
7899;SDS011;3995;50.856;4.404;2023-05-27T08:04:41;14.73;;;6.00;;
7899;SDS011;3995;50.856;4.404;2023-05-27T08:07:09;15.17;;;6.57;;
7899;SDS011;3995;50.856;4.404;2023-05-27T08:09:38;17.67;;;6.67;;
7899;SDS011;3995;50.856;4.404;2023-05-27T08:12:05;12.10;;;6.43;;
7899;SDS011;3995;50.856;4.404;2023-05-27T08:14:34;18.23;;;7.57;;
7899;SDS011;3995;50.856;4.404;2023-05-27T08:17:03;17.93;;;7.03;;
7899;SDS011;3995;50.856;4.404;2023-05-27T08:19:31;17.83;;;6.50;;
7899;SDS011;3995;50.856;4.404;2023-05-27T08:21:59;13.80;;;5.90;;
7899;SDS011;3995;50.856;4.404;2023-05-27T08:24:28;13.90;;;6.53;;
7899;SDS011;3995;50.856;4.404;2023-05-27T08:26:57;19.33;;;7.20;;
7899;SDS011;3995;50.856;4.404;2023-05-27T08:29:24;11.30;;;5.77;;
7899;SDS011;3995;50.856;4.404;2023-05-27T08:31:54;17.00;;;6.30;;
7899;SDS011;3995;50.856;4.404;2023-05-27T08:34:21;15.33;;;5.90;;
7899;SDS011;3995;50.856;4.404;2023-05-27T08:36:49;19.33;;;6.67;;
7899;SDS011;3995;50.856;4.404;2023-05-27T08:39:16;13.10;;;5.80;;
7899;SDS011;3995;50.856;4.404;2023-05-27T08:41:45;19.87;;;6.93;;
7899;SDS011;3995;50.856;4.404;2023-05-27T08:44:13;14.77;;;5.47;;
7899;SDS011;3995;50.856;4.404;2023-05-27T08:46:41;14.63;;;5.30;;
7899;SDS011;3995;50.856;4.404;2023-05-27T08:49:10;14.90;;;6.40;;
7899;SDS011;3995;50.856;4.404;2023-05-27T08:51:38;14.10;;;6.13;;
7899;SDS011;3995;50.856;4.404;2023-05-27T08:54:07;18.73;;;6.50;;
7899;SDS011;3995;50.856;4.404;2023-05-27T08:56:35;17.00;;;6.20;;
7899;SDS011;3995;50.856;4.404;2023-05-27T08:59:05;16.50;;;5.63;;
7899;SDS011;3995;50.856;4.404;2023-05-27T09:01:34;22.77;;;6.00;;
7899;SDS011;3995;50.856;4.404;2023-05-27T09:04:01;18.90;;;5.90;;
7899;SDS011;3995;50.856;4.404;2023-05-27T09:06:31;13.17;;;6.03;;
7899;SDS011;3995;50.856;4.404;2023-05-27T09:08:59;17.93;;;5.97;;
7899;SDS011;3995;50.856;4.404;2023-05-27T09:11:27;14.57;;;5.53;;
7899;SDS011;3995;50.856;4.404;2023-05-27T09:13:59;17.83;;;7.20;;
7899;SDS011;3995;50.856;4.404;2023-05-27T09:16:27;18.70;;;6.33;;
7899;SDS011;3995;50.856;4.404;2023-05-27T09:18:55;13.73;;;5.90;;
7899;SDS011;3995;50.856;4.404;2023-05-27T09:21:23;15.27;;;6.50;;
7899;SDS011;3995;50.856;4.404;2023-05-27T09:23:56;16.90;;;6.40;;
7899;SDS011;3995;50.856;4.404;2023-05-27T09:26:24;14.33;;;5.93;;
7899;SDS011;3995;50.856;4.404;2023-05-27T09:28:51;16.70;;;5.50;;
7899;SDS011;3995;50.856;4.404;2023-05-27T09:31:20;15.90;;;6.00;;
7899;SDS011;3995;50.856;4.404;2023-05-27T09:33:49;19.50;;;5.80;;
7899;SDS011;3995;50.856;4.404;2023-05-27T09:36:19;15.33;;;5.97;;
7899;SDS011;3995;50.856;4.404;2023-05-27T09:38:48;12.40;;;5.47;;
7899;SDS011;3995;50.856;4.404;2023-05-27T09:41:24;14.57;;;5.60;;
7899;SDS011;3995;50.856;4.404;2023-05-27T09:43:54;17.67;;;6.37;;
7899;SDS011;3995;50.856;4.404;2023-05-27T09:46:23;13.33;;;5.40;;
7899;SDS011;3995;50.856;4.404;2023-05-27T09:48:51;15.97;;;6.03;;
7899;SDS011;3995;50.856;4.404;2023-05-27T09:51:19;13.27;;;5.63;;
7899;SDS011;3995;50.856;4.404;2023-05-27T09:53:48;21.70;;;7.00;;
7899;SDS011;3995;50.856;4.404;2023-05-27T09:56:17;15.00;;;5.93;;
7899;SDS011;3995;50.856;4.404;2023-05-27T09:58:46;14.20;;;6.33;;
7899;SDS011;3995;50.856;4.404;2023-05-27T10:01:13;11.97;;;5.37;;
7899;SDS011;3995;50.856;4.404;2023-05-27T10:03:42;15.70;;;5.00;;
7899;SDS011;3995;50.856;4.404;2023-05-27T10:06:11;13.60;;;6.33;;
7899;SDS011;3995;50.856;4.404;2023-05-27T10:08:41;12.60;;;5.83;;
7899;SDS011;3995;50.856;4.404;2023-05-27T10:11:09;15.07;;;5.70;;
7899;SDS011;3995;50.856;4.404;2023-05-27T10:13:37;10.80;;;4.60;;
7899;SDS011;3995;50.856;4.404;2023-05-27T10:16:07;15.40;;;5.27;;
7899;SDS011;3995;50.856;4.404;2023-05-27T10:18:45;14.80;;;5.20;;
7899;SDS011;3995;50.856;4.404;2023-05-27T10:21:18;15.80;;;4.73;;
7899;SDS011;3995;50.856;4.404;2023-05-27T10:23:52;16.00;;;5.77;;
7899;SDS011;3995;50.856;4.404;2023-05-27T10:26:31;8.20;;;4.03;;
7899;SDS011;3995;50.856;4.404;2023-05-27T10:29:04;12.97;;;5.77;;
7899;SDS011;3995;50.856;4.404;2023-05-27T10:31:34;19.23;;;5.33;;
7899;SDS011;3995;50.856;4.404;2023-05-27T10:34:03;15.53;;;4.80;;
7899;SDS011;3995;50.856;4.404;2023-05-27T10:36:32;17.17;;;5.90;;
7899;SDS011;3995;50.856;4.404;2023-05-27T10:39:03;14.33;;;5.10;;
7899;SDS011;3995;50.856;4.404;2023-05-27T10:41:38;17.60;;;5.50;;
7899;SDS011;3995;50.856;4.404;2023-05-27T10:44:06;14.00;;;5.67;;
7899;SDS011;3995;50.856;4.404;2023-05-27T10:46:41;14.07;;;5.60;;
7899;SDS011;3995;50.856;4.404;2023-05-27T10:49:10;16.60;;;5.40;;
7899;SDS011;3995;50.856;4.404;2023-05-27T10:51:40;21.23;;;5.83;;
7899;SDS011;3995;50.856;4.404;2023-05-27T10:54:09;16.70;;;6.40;;
7899;SDS011;3995;50.856;4.404;2023-05-27T10:56:38;17.27;;;5.90;;
7899;SDS011;3995;50.856;4.404;2023-05-27T10:59:18;17.37;;;5.90;;
7899;SDS011;3995;50.856;4.404;2023-05-27T11:01:50;17.30;;;6.03;;
7899;SDS011;3995;50.856;4.404;2023-05-27T11:04:19;13.57;;;5.17;;
7899;SDS011;3995;50.856;4.404;2023-05-27T11:06:56;11.20;;;4.37;;
7899;SDS011;3995;50.856;4.404;2023-05-27T11:09:25;9.10;;;4.77;;
7899;SDS011;3995;50.856;4.404;2023-05-27T11:11:53;18.63;;;6.50;;
7899;SDS011;3995;50.856;4.404;2023-05-27T11:14:22;10.40;;;5.23;;
7899;SDS011;3995;50.856;4.404;2023-05-27T11:16:51;10.33;;;4.53;;
7899;SDS011;3995;50.856;4.404;2023-05-27T11:19:19;12.60;;;4.70;;
7899;SDS011;3995;50.856;4.404;2023-05-27T11:21:47;17.00;;;4.90;;
7899;SDS011;3995;50.856;4.404;2023-05-27T11:24:15;14.67;;;5.10;;
7899;SDS011;3995;50.856;4.404;2023-05-27T11:26:43;13.20;;;5.17;;
7899;SDS011;3995;50.856;4.404;2023-05-27T11:29:12;11.57;;;4.20;;
7899;SDS011;3995;50.856;4.404;2023-05-27T11:31:40;12.83;;;4.40;;
7899;SDS011;3995;50.856;4.404;2023-05-27T11:34:15;9.30;;;4.37;;
7899;SDS011;3995;50.856;4.404;2023-05-27T11:36:44;17.00;;;6.43;;
7899;SDS011;3995;50.856;4.404;2023-05-27T11:39:12;11.80;;;4.90;;
7899;SDS011;3995;50.856;4.404;2023-05-27T11:41:48;10.10;;;4.40;;
7899;SDS011;3995;50.856;4.404;2023-05-27T11:44:17;13.43;;;4.73;;
7899;SDS011;3995;50.856;4.404;2023-05-27T11:46:46;16.07;;;4.90;;
7899;SDS011;3995;50.856;4.404;2023-05-27T11:49:15;12.80;;;4.73;;
7899;SDS011;3995;50.856;4.404;2023-05-27T11:51:43;19.10;;;5.07;;
7899;SDS011;3995;50.856;4.404;2023-05-27T11:54:17;10.40;;;4.73;;
7899;SDS011;3995;50.856;4.404;2023-05-27T11:56:45;9.90;;;3.73;;
7899;SDS011;3995;50.856;4.404;2023-05-27T11:59:13;12.97;;;4.30;;
7899;SDS011;3995;50.856;4.404;2023-05-27T12:01:41;13.83;;;4.47;;
7899;SDS011;3995;50.856;4.404;2023-05-27T12:04:09;9.67;;;4.80;;
7899;SDS011;3995;50.856;4.404;2023-05-27T12:06:40;15.93;;;4.60;;
7899;SDS011;3995;50.856;4.404;2023-05-27T12:09:07;10.63;;;4.53;;
7899;SDS011;3995;50.856;4.404;2023-05-27T12:11:35;12.77;;;4.70;;
7899;SDS011;3995;50.856;4.404;2023-05-27T12:14:04;10.10;;;3.83;;
7899;SDS011;3995;50.856;4.404;2023-05-27T12:16:32;8.20;;;4.10;;
7899;SDS011;3995;50.856;4.404;2023-05-27T12:19:00;9.60;;;4.40;;
7899;SDS011;3995;50.856;4.404;2023-05-27T12:21:27;7.50;;;3.30;;
7899;SDS011;3995;50.856;4.404;2023-05-27T12:23:57;13.07;;;4.00;;
7899;SDS011;3995;50.856;4.404;2023-05-27T12:26:24;13.67;;;4.10;;
7899;SDS011;3995;50.856;4.404;2023-05-27T12:28:52;17.70;;;4.40;;
7899;SDS011;3995;50.856;4.404;2023-05-27T12:31:21;10.30;;;4.63;;
7899;SDS011;3995;50.856;4.404;2023-05-27T12:33:48;10.67;;;4.50;;
7899;SDS011;3995;50.856;4.404;2023-05-27T12:36:16;9.80;;;3.87;;
7899;SDS011;3995;50.856;4.404;2023-05-27T12:38:44;7.77;;;3.63;;
7899;SDS011;3995;50.856;4.404;2023-05-27T12:41:13;17.33;;;4.47;;
7899;SDS011;3995;50.856;4.404;2023-05-27T12:43:41;10.53;;;3.60;;
7899;SDS011;3995;50.856;4.404;2023-05-27T12:46:09;9.23;;;3.90;;
7899;SDS011;3995;50.856;4.404;2023-05-27T12:48:36;11.40;;;4.30;;
7899;SDS011;3995;50.856;4.404;2023-05-27T12:51:03;10.40;;;4.77;;
7899;SDS011;3995;50.856;4.404;2023-05-27T12:53:31;8.30;;;3.80;;
7899;SDS011;3995;50.856;4.404;2023-05-27T12:55:59;9.80;;;3.90;;
7899;SDS011;3995;50.856;4.404;2023-05-27T12:58:28;13.70;;;4.23;;
7899;SDS011;3995;50.856;4.404;2023-05-27T13:00:55;12.37;;;3.93;;
7899;SDS011;3995;50.856;4.404;2023-05-27T13:03:23;6.80;;;3.50;;
7899;SDS011;3995;50.856;4.404;2023-05-27T13:05:51;11.70;;;3.80;;
7899;SDS011;3995;50.856;4.404;2023-05-27T13:08:18;20.33;;;4.27;;
7899;SDS011;3995;50.856;4.404;2023-05-27T13:10:45;6.93;;;3.03;;
7899;SDS011;3995;50.856;4.404;2023-05-27T13:13:13;8.57;;;3.70;;
7899;SDS011;3995;50.856;4.404;2023-05-27T13:15:41;12.23;;;4.23;;
7899;SDS011;3995;50.856;4.404;2023-05-27T13:18:09;8.70;;;3.83;;
7899;SDS011;3995;50.856;4.404;2023-05-27T13:20:37;10.37;;;4.00;;
7899;SDS011;3995;50.856;4.404;2023-05-27T13:23:04;9.40;;;3.70;;
7899;SDS011;3995;50.856;4.404;2023-05-27T13:25:32;13.30;;;3.30;;
7899;SDS011;3995;50.856;4.404;2023-05-27T13:28:00;15.33;;;4.17;;
7899;SDS011;3995;50.856;4.404;2023-05-27T13:30:28;9.57;;;3.60;;
7899;SDS011;3995;50.856;4.404;2023-05-27T13:32:58;8.03;;;4.30;;
7899;SDS011;3995;50.856;4.404;2023-05-27T13:35:26;8.37;;;4.00;;
7899;SDS011;3995;50.856;4.404;2023-05-27T13:37:54;9.70;;;3.80;;
7899;SDS011;3995;50.856;4.404;2023-05-27T13:40:25;9.63;;;3.30;;
7899;SDS011;3995;50.856;4.404;2023-05-27T13:42:53;11.30;;;4.33;;
7899;SDS011;3995;50.856;4.404;2023-05-27T13:45:20;11.03;;;4.70;;
7899;SDS011;3995;50.856;4.404;2023-05-27T13:47:48;11.80;;;3.87;;
7899;SDS011;3995;50.856;4.404;2023-05-27T13:50:17;7.67;;;4.40;;
7899;SDS011;3995;50.856;4.404;2023-05-27T13:52:45;10.43;;;4.63;;
7899;SDS011;3995;50.856;4.404;2023-05-27T13:55:13;11.00;;;4.80;;
7899;SDS011;3995;50.856;4.404;2023-05-27T13:57:40;18.10;;;4.53;;
7899;SDS011;3995;50.856;4.404;2023-05-27T14:00:09;16.13;;;4.40;;
7899;SDS011;3995;50.856;4.404;2023-05-27T14:02:37;12.47;;;4.10;;
7899;SDS011;3995;50.856;4.404;2023-05-27T14:05:05;12.30;;;4.90;;
7899;SDS011;3995;50.856;4.404;2023-05-27T14:07:40;8.50;;;3.70;;
7899;SDS011;3995;50.856;4.404;2023-05-27T14:10:09;34.17;;;5.33;;
7899;SDS011;3995;50.856;4.404;2023-05-27T14:12:37;10.63;;;4.40;;
7899;SDS011;3995;50.856;4.404;2023-05-27T14:15:05;10.87;;;4.07;;
7899;SDS011;3995;50.856;4.404;2023-05-27T14:17:33;9.90;;;3.67;;
7899;SDS011;3995;50.856;4.404;2023-05-27T14:20:00;8.80;;;3.50;;
7899;SDS011;3995;50.856;4.404;2023-05-27T14:22:28;8.77;;;3.30;;
7899;SDS011;3995;50.856;4.404;2023-05-27T14:24:57;7.00;;;3.60;;
7899;SDS011;3995;50.856;4.404;2023-05-27T14:27:25;10.03;;;3.93;;
7899;SDS011;3995;50.856;4.404;2023-05-27T14:29:55;13.40;;;3.83;;
7899;SDS011;3995;50.856;4.404;2023-05-27T14:32:23;9.03;;;3.83;;
7899;SDS011;3995;50.856;4.404;2023-05-27T14:34:51;6.53;;;3.83;;
7899;SDS011;3995;50.856;4.404;2023-05-27T14:37:20;16.53;;;4.67;;
7899;SDS011;3995;50.856;4.404;2023-05-27T14:39:50;7.13;;;3.83;;
7899;SDS011;3995;50.856;4.404;2023-05-27T14:42:19;7.33;;;3.90;;
7899;SDS011;3995;50.856;4.404;2023-05-27T14:44:48;12.37;;;4.77;;
7899;SDS011;3995;50.856;4.404;2023-05-27T14:47:15;8.70;;;3.70;;
7899;SDS011;3995;50.856;4.404;2023-05-27T14:49:43;9.13;;;3.97;;
7899;SDS011;3995;50.856;4.404;2023-05-27T14:52:10;10.73;;;3.20;;
7899;SDS011;3995;50.856;4.404;2023-05-27T14:54:38;9.83;;;4.00;;
7899;SDS011;3995;50.856;4.404;2023-05-27T14:57:05;7.77;;;3.90;;
7899;SDS011;3995;50.856;4.404;2023-05-27T14:59:35;14.73;;;5.03;;
7899;SDS011;3995;50.856;4.404;2023-05-27T15:02:02;9.33;;;4.60;;
7899;SDS011;3995;50.856;4.404;2023-05-27T15:04:30;12.67;;;3.50;;
7899;SDS011;3995;50.856;4.404;2023-05-27T15:06:58;13.87;;;4.50;;
7899;SDS011;3995;50.856;4.404;2023-05-27T15:09:26;8.50;;;3.90;;
7899;SDS011;3995;50.856;4.404;2023-05-27T15:11:54;11.20;;;4.43;;